Terminal Aerodrome Forecast
Issued by NWS

Home | Current Version | Previous Version | Text Only | Print | Product List | Glossary On
Versions: 1 2 3 4 5 6 7 8 9 10 11 12
096
FTUS45 KABQ 280521
TAFTCC
TAF
KTCC 280521Z 2806/2906 16013KT P6SM SCT080 BKN120
     FM281100 10008KT P6SM VCSH BKN050 BKN100
      TEMPO 2811/2815 05008KT
     FM281500 12012KT P6SM VCSH BKN050 BKN100
     FM282100 08015KT P6SM VCSH OVC070=

USA.gov is the U.S. government's official web portal to all federal, state and local government web resources and services.